Time;durP1;ratioP1;P1;durP2;ratioP2;P2;SDS_P1;SDS_P2;PMS_P1;PMS_P2;Temp;Humidity;BMP_temperature;BMP_pressure;BME280_temperature;BME280_humidity;BME280_pressure;Samples;Min_cycle;Max_cycle;Signal;HPM_P1;HPM_P2
2022/02/20 00:01:51;;;;;;;7.47;2.60;;;;;;;6.47;66.38;100404.31;5054763;28;20386;-80
2022/02/20 00:04:17;;;;;;;7.38;2.00;;;;;;;6.46;66.63;100384.66;5084957;28;20429;-79
2022/02/20 00:06:42;;;;;;;8.80;2.10;;;;;;;6.53;65.59;100384.59;5062493;28;20426;-80
2022/02/20 00:09:07;;;;;;;10.23;2.70;;;;;;;6.50;65.28;100388.56;5067516;28;20412;-79
2022/02/20 00:11:32;;;;;;;6.68;1.65;;;;;;;6.58;64.40;100384.78;5069899;28;20873;-80
2022/02/20 00:13:58;;;;;;;5.53;2.10;;;;;;;6.62;65.16;100384.09;5072821;28;20411;-79
2022/02/20 00:16:23;;;;;;;7.83;1.97;;;;;;;6.68;63.48;100374.31;5066446;28;20409;-80
2022/02/20 00:18:49;;;;;;;8.25;2.53;;;;;;;6.66;63.77;100376.41;5053849;28;20443;-79
2022/02/20 00:21:15;;;;;;;5.57;1.70;;;;;;;6.56;64.52;100378.75;5068595;28;20384;-79
2022/02/20 00:23:41;;;;;;;6.53;2.00;;;;;;;6.66;64.16;100366.47;5036951;28;20818;-78
2022/02/20 00:26:06;;;;;;;8.73;1.93;;;;;;;6.73;63.65;100374.47;5060032;28;20628;-80
2022/02/20 00:28:32;;;;;;;5.13;1.60;;;;;;;6.68;64.24;100368.94;5063641;28;20412;-80
2022/02/20 00:30:57;;;;;;;7.83;1.90;;;;;;;6.71;63.64;100366.63;5062931;28;20402;-80
2022/02/20 00:33:23;;;;;;;7.03;1.70;;;;;;;6.82;62.97;100375.03;5071865;28;20474;-79
2022/02/20 00:35:49;;;;;;;6.67;1.77;;;;;;;6.82;63.53;100381.22;5054205;28;20406;-79
2022/02/20 00:38:14;;;;;;;7.67;2.50;;;;;;;6.83;63.34;100366.72;5063839;28;20406;-78
2022/02/20 00:40:40;;;;;;;5.80;1.80;;;;;;;6.77;63.29;100371.13;5053647;28;20396;-78
2022/02/20 00:43:05;;;;;;;8.30;2.15;;;;;;;6.83;63.51;100365.88;5051624;28;20384;-80
2022/02/20 00:45:31;;;;;;;7.83;1.90;;;;;;;6.82;62.76;100356.97;5057377;28;20454;-79
2022/02/20 00:47:57;;;;;;;8.83;1.90;;;;;;;6.82;63.29;100348.09;5070158;28;20403;-79
2022/02/20 00:50:23;;;;;;;7.77;2.17;;;;;;;6.88;63.00;100348.03;5072109;28;20490;-79
2022/02/20 00:52:49;;;;;;;7.72;2.13;;;;;;;6.96;62.45;100350.41;5057519;28;20421;-79
2022/02/20 00:55:14;;;;;;;10.10;1.70;;;;;;;6.96;62.31;100352.28;5056198;28;20506;-79
2022/02/20 00:57:40;;;;;;;6.78;1.60;;;;;;;7.02;61.62;100373.75;5066109;28;20405;-78
2022/02/20 01:00:08;;;;;;;4.60;1.60;;;;;;;6.91;62.18;100350.28;5064000;28;20495;-80
2022/02/20 01:02:34;;;;;;;5.00;1.33;;;;;;;6.91;61.71;100360.22;5072744;28;20453;-79
2022/02/20 01:04:59;;;;;;;6.93;2.53;;;;;;;6.92;61.99;100361.84;5070466;28;20391;-79
2022/02/20 01:07:24;;;;;;;6.07;1.80;;;;;;;6.95;61.57;100350.66;5047042;28;20433;-79
2022/02/20 01:09:50;;;;;;;9.23;2.10;;;;;;;6.87;62.08;100359.84;5052864;28;20394;-80
2022/02/20 01:12:16;;;;;;;6.25;1.58;;;;;;;6.90;62.29;100366.63;5066706;28;20411;-79
2022/02/20 01:14:43;;;;;;;7.03;2.42;;;;;;;6.95;61.48;100373.00;5038596;28;20413;-80
2022/02/20 01:17:10;;;;;;;8.80;1.70;;;;;;;7.03;60.71;100383.50;5072526;28;20411;-78
2022/02/20 01:19:35;;;;;;;4.25;1.40;;;;;;;7.05;60.94;100389.47;5078740;28;20404;-78
2022/02/20 01:22:00;;;;;;;4.00;1.40;;;;;;;6.97;61.11;100386.25;5051981;28;20405;-79
2022/02/20 01:24:26;;;;;;;4.23;1.60;;;;;;;6.99;61.94;100394.94;5058698;28;20393;-79
2022/02/20 01:26:51;;;;;;;5.97;2.03;;;;;;;7.02;61.92;100384.53;5068222;28;20885;-79
2022/02/20 01:29:17;;;;;;;6.47;1.67;;;;;;;7.00;61.86;100400.09;5060795;28;20882;-78
2022/02/20 01:31:43;;;;;;;4.65;1.42;;;;;;;7.04;61.90;100401.31;5034578;28;20880;-79
2022/02/20 01:34:08;;;;;;;7.80;2.17;;;;;;;7.02;61.30;100398.00;5068407;28;20399;-78
2022/02/20 01:36:33;;;;;;;6.10;1.57;;;;;;;7.01;62.61;100396.38;5050197;28;20456;-79
2022/02/20 01:38:59;;;;;;;4.90;1.93;;;;;;;6.95;62.61;100402.63;5059468;28;20478;-78
2022/02/20 01:41:24;;;;;;;7.13;1.33;;;;;;;6.91;63.19;100401.44;5061288;28;20465;-79
2022/02/20 01:43:53;;;;;;;5.43;1.42;;;;;;;6.95;62.82;100399.16;5066934;28;20392;-78
2022/02/20 01:46:20;;;;;;;5.03;1.83;;;;;;;6.99;62.84;100398.44;5063310;28;20796;-78
2022/02/20 01:48:45;;;;;;;5.45;1.75;;;;;;;7.00;62.56;100410.88;5051397;28;20404;-79
2022/02/20 01:51:10;;;;;;;4.63;1.97;;;;;;;7.05;62.13;100427.19;5066119;28;20416;-78
2022/02/20 01:53:36;;;;;;;5.47;1.50;;;;;;;7.04;63.08;100422.03;5057912;28;20479;-79
2022/02/20 01:56:03;;;;;;;6.17;1.40;;;;;;;7.08;62.93;100423.25;5068173;28;20400;-79
2022/02/20 01:58:28;;;;;;;5.43;1.85;;;;;;;7.12;62.77;100408.25;5057828;28;20391;-78
2022/02/20 02:00:53;;;;;;;4.17;1.70;;;;;;;7.19;62.46;100431.41;5071672;28;20403;-78
2022/02/20 02:03:20;;;;;;;7.47;1.50;;;;;;;7.17;62.50;100446.16;5065108;28;20430;-78
2022/02/20 02:05:46;;;;;;;5.57;1.70;;;;;;;7.12;62.72;100440.59;5063117;28;20443;-78
2022/02/20 02:08:12;;;;;;;3.50;1.40;;;;;;;7.09;63.66;100436.50;5051519;28;20491;-79
2022/02/20 02:10:37;;;;;;;7.10;2.03;;;;;;;7.07;64.65;100445.84;5042573;28;20824;-78
2022/02/20 02:13:03;;;;;;;4.30;1.57;;;;;;;7.00;65.48;100448.59;5041495;28;20447;-79
2022/02/20 02:15:29;;;;;;;6.93;1.70;;;;;;;6.99;65.32;100440.72;5067659;28;20408;-79
2022/02/20 02:17:54;;;;;;;4.07;1.20;;;;;;;7.07;65.12;100433.22;5053750;28;20792;-78
2022/02/20 02:20:20;;;;;;;10.02;1.98;;;;;;;7.06;65.34;100428.03;5033722;28;20400;-78
2022/02/20 02:22:45;;;;;;;4.63;1.30;;;;;;;6.98;65.11;100434.50;5063022;28;20380;-78
2022/02/20 02:25:10;;;;;;;3.77;1.30;;;;;;;7.04;65.23;100433.66;5056612;28;20483;-78
2022/02/20 02:27:36;;;;;;;4.93;1.20;;;;;;;7.05;65.08;100434.44;5067722;28;20879;-79
2022/02/20 02:30:07;;;;;;;5.43;1.60;;;;;;;7.02;65.40;100426.81;5057706;28;20732;-78
2022/02/20 02:32:33;;;;;;;4.93;1.48;;;;;;;7.07;65.63;100427.00;5063350;28;20421;-78
2022/02/20 02:34:58;;;;;;;7.47;1.92;;;;;;;6.99;67.05;100429.97;5050653;28;20412;-79
2022/02/20 02:37:24;;;;;;;23.77;12.73;;;;;;;6.99;67.49;100422.69;5053401;28;20772;-78
2022/02/20 02:39:49;;;;;;;5.40;1.60;;;;;;;6.84;68.04;100433.00;5044659;28;20395;-78
2022/02/20 02:42:15;;;;;;;5.40;1.40;;;;;;;6.87;67.31;100443.34;5063364;28;20390;-79
2022/02/20 02:44:41;;;;;;;6.00;1.80;;;;;;;6.87;67.86;100437.94;5053361;28;20796;-78
2022/02/20 02:47:07;;;;;;;4.22;1.40;;;;;;;6.95;67.23;100434.16;5055882;28;20403;-79
2022/02/20 02:49:33;;;;;;;5.10;1.70;;;;;;;6.80;68.29;100437.19;5033488;28;20402;-77
2022/02/20 02:51:59;;;;;;;6.00;1.30;;;;;;;6.78;68.29;100447.38;5060521;28;20399;-78
2022/02/20 02:54:24;;;;;;;4.90;1.17;;;;;;;6.72;68.44;100440.97;5058451;28;20741;-79
2022/02/20 02:56:50;;;;;;;6.80;1.53;;;;;;;6.66;68.82;100441.84;5067470;28;20412;-79
2022/02/20 02:59:16;;;;;;;5.73;1.60;;;;;;;6.73;68.62;100449.88;5052418;28;20407;-78
2022/02/20 03:01:43;;;;;;;3.58;1.10;;;;;;;6.72;69.06;100445.53;5035421;28;20405;-78
2022/02/20 03:04:09;;;;;;;6.50;1.33;;;;;;;6.68;69.25;100447.03;5045406;28;20437;-78
2022/02/20 03:06:34;;;;;;;7.18;1.70;;;;;;;6.61;69.46;100451.66;5055287;28;20389;-78
2022/02/20 03:09:00;;;;;;;6.43;1.60;;;;;;;6.57;70.36;100455.81;5067670;28;20413;-78
2022/02/20 03:11:26;;;;;;;3.40;1.48;;;;;;;6.44;71.44;100455.91;5065870;28;20831;-79
2022/02/20 03:13:52;;;;;;;5.53;1.27;;;;;;;6.45;71.64;100468.34;5071233;28;20445;-79
2022/02/20 03:16:17;;;;;;;5.87;1.60;;;;;;;6.45;71.89;100465.66;5054008;28;20405;-79
2022/02/20 03:18:42;;;;;;;4.83;1.17;;;;;;;6.51;71.37;100460.22;5068246;28;20391;-79
2022/02/20 03:21:08;;;;;;;8.43;1.60;;;;;;;6.47;71.57;100453.59;5061082;28;20380;-79
2022/02/20 03:23:34;;;;;;;5.95;1.60;;;;;;;6.45;71.92;100457.56;5064879;28;20393;-78
2022/02/20 03:26:00;;;;;;;3.77;1.30;;;;;;;6.46;71.89;100454.63;5061490;28;20407;-78
2022/02/20 03:28:25;;;;;;;4.87;1.10;;;;;;;6.47;72.48;100456.31;5057043;28;20393;-78
2022/02/20 03:30:51;;;;;;;3.73;1.20;;;;;;;6.37;72.67;100460.50;5085927;28;20396;-79
2022/02/20 03:33:17;;;;;;;4.63;1.03;;;;;;;6.36;72.90;100462.38;5072743;28;20878;-78
2022/02/20 03:35:43;;;;;;;6.85;1.30;;;;;;;6.37;73.21;100466.72;5074292;28;20944;-79
2022/02/20 03:38:09;;;;;;;3.72;1.08;;;;;;;6.46;72.44;100468.09;5058157;28;20417;-78
2022/02/20 03:40:35;;;;;;;4.90;1.50;;;;;;;6.48;72.52;100471.41;5061295;28;20410;-78
2022/02/20 03:43:00;;;;;;;2.95;1.17;;;;;;;6.53;71.94;100468.06;5062798;28;20402;-78
2022/02/20 03:45:26;;;;;;;1.90;1.13;;;;;;;6.46;71.95;100467.28;5028039;28;20404;-78
2022/02/20 03:47:52;;;;;;;9.73;3.72;;;;;;;6.47;71.75;100477.00;5069398;28;20490;-79
2022/02/20 03:50:18;;;;;;;3.87;2.40;;;;;;;6.64;71.16;100478.13;5064477;28;20784;-78
2022/02/20 03:52:44;;;;;;;6.05;2.47;;;;;;;6.45;72.90;100479.94;5067186;28;20385;-79
2022/02/20 03:55:10;;;;;;;3.88;2.00;;;;;;;6.39;72.69;100477.28;5053732;28;20409;-78
2022/02/20 03:57:36;;;;;;;7.30;1.90;;;;;;;6.48;72.48;100478.66;5037117;28;20413;-79
2022/02/20 04:00:15;;;;;;;5.07;1.67;;;;;;;6.49;72.36;100472.22;5064138;28;20430;-79
2022/02/20 04:02:41;;;;;;;4.78;1.52;;;;;;;6.53;71.90;100486.91;5074111;28;20391;-80
2022/02/20 04:05:12;;;;;;;10.85;4.10;;;;;;;6.61;72.09;100490.16;5062039;28;20465;-78
2022/02/20 04:07:38;;;;;;;7.90;3.25;;;;;;;6.42;72.86;100498.38;5070132;28;20418;-78
2022/02/20 04:10:05;;;;;;;17.85;6.00;;;;;;;6.38;73.28;100508.75;5084964;28;20898;-79
2022/02/20 04:12:30;;;;;;;21.98;6.68;;;;;;;6.34;73.29;100510.22;5073956;28;20870;-80
2022/02/20 04:14:56;;;;;;;8.37;2.90;;;;;;;6.41;73.23;100511.00;5061970;28;20458;-79
2022/02/20 04:17:22;;;;;;;6.88;1.63;;;;;;;6.53;72.11;100508.44;5069641;28;20411;-78
2022/02/20 04:19:48;;;;;;;10.80;3.97;;;;;;;6.51;73.03;100513.22;5057538;28;21029;-79
2022/02/20 04:22:14;;;;;;;6.00;1.98;;;;;;;6.46;73.05;100519.25;5048744;28;20386;-79
2022/02/20 04:24:40;;;;;;;11.77;5.55;;;;;;;6.47;73.06;100520.09;5058168;28;20410;-78
2022/02/20 04:27:05;;;;;;;5.30;2.42;;;;;;;6.51;72.83;100513.22;5073653;28;20870;-79
2022/02/20 04:29:31;;;;;;;3.35;1.65;;;;;;;6.51;72.97;100522.13;5054468;28;20861;-79
2022/02/20 04:31:59;;;;;;;5.03;1.80;;;;;;;6.51;73.40;100519.44;5075373;28;20554;-80
2022/02/20 04:34:24;;;;;;;4.07;1.80;;;;;;;6.56;72.65;100529.53;5062946;28;20492;-78
2022/02/20 04:36:50;;;;;;;3.50;2.03;;;;;;;6.59;72.42;100532.63;5053319;28;20512;-79
2022/02/20 04:39:15;;;;;;;4.77;1.40;;;;;;;6.53;72.84;100535.38;5058832;28;20416;-79
2022/02/20 04:41:40;;;;;;;3.37;1.40;;;;;;;6.59;73.25;100527.25;5059076;28;20813;-78
2022/02/20 04:44:05;;;;;;;2.37;1.20;;;;;;;6.59;73.08;100527.25;5079625;28;20405;-79
2022/02/20 04:46:34;;;;;;;1.98;1.10;;;;;;;6.53;73.78;100529.97;5082066;28;20406;-79
2022/02/20 04:48:59;;;;;;;4.10;1.20;;;;;;;6.50;73.79;100525.84;5070123;28;20392;-79
2022/02/20 04:51:25;;;;;;;2.63;0.68;;;;;;;6.50;73.65;100525.03;5067808;28;20390;-78
2022/02/20 04:53:50;;;;;;;3.40;2.17;;;;;;;6.51;73.88;100537.47;5047183;28;21047;-79
2022/02/20 04:56:15;;;;;;;3.33;2.13;;;;;;;6.52;73.85;100531.84;5058056;28;20463;-79
2022/02/20 04:58:41;;;;;;;3.10;1.37;;;;;;;6.62;73.34;100521.41;5084637;28;20400;-78
2022/02/20 05:01:06;;;;;;;3.73;1.53;;;;;;;6.69;73.46;100532.16;5038860;28;20400;-79
2022/02/20 05:03:32;;;;;;;2.63;1.10;;;;;;;6.72;73.74;100520.94;5059693;28;20412;-79
2022/02/20 05:05:57;;;;;;;2.63;1.08;;;;;;;6.70;73.87;100533.81;5051448;28;20414;-79
2022/02/20 05:08:22;;;;;;;2.20;0.70;;;;;;;6.78;73.20;100531.66;5058750;28;21011;-78
2022/02/20 05:10:48;;;;;;;3.97;1.00;;;;;;;6.77;73.27;100531.91;5055127;28;20821;-80
2022/02/20 05:13:13;;;;;;;2.67;1.10;;;;;;;6.83;72.76;100511.34;5066563;28;20480;-79
2022/02/20 05:15:38;;;;;;;2.83;0.90;;;;;;;6.83;73.17;100517.56;5055404;28;20436;-78
2022/02/20 05:18:03;;;;;;;2.83;1.15;;;;;;;6.81;72.68;100511.56;5057858;28;20491;-80
2022/02/20 05:20:29;;;;;;;3.20;1.23;;;;;;;6.80;73.01;100518.00;5051238;28;20412;-79
2022/02/20 05:22:54;;;;;;;4.43;0.93;;;;;;;6.77;73.11;100529.19;5054153;28;20485;-78
2022/02/20 05:25:19;;;;;;;5.63;0.80;;;;;;;6.79;72.70;100527.09;5062097;28;20400;-80
2022/02/20 05:27:44;;;;;;;2.90;0.70;;;;;;;6.90;71.90;100529.09;5051587;28;20454;-80
2022/02/20 05:30:11;;;;;;;2.70;0.70;;;;;;;6.92;71.32;100527.00;5052325;28;20741;-79
2022/02/20 05:32:37;;;;;;;2.53;0.60;;;;;;;6.85;71.73;100520.84;5057225;28;20543;-80
2022/02/20 05:35:02;;;;;;;1.47;0.50;;;;;;;6.82;72.56;100542.03;5051927;28;20944;-79
2022/02/20 05:37:28;;;;;;;1.97;1.07;;;;;;;6.88;71.65;100530.38;5079146;28;21019;-79
2022/02/20 05:39:53;;;;;;;4.63;0.70;;;;;;;6.87;72.14;100532.25;5072700;28;20392;-78
2022/02/20 05:42:19;;;;;;;1.90;0.50;;;;;;;6.89;72.04;100532.00;5054919;28;20898;-80
2022/02/20 05:44:44;;;;;;;2.43;0.70;;;;;;;6.91;72.48;100538.84;5059167;28;20395;-79
2022/02/20 05:47:10;;;;;;;1.08;0.75;;;;;;;6.79;73.03;100522.53;5061866;28;20390;-78
2022/02/20 05:49:35;;;;;;;4.38;1.38;;;;;;;6.83;73.13;100517.56;5052017;28;20390;-78
2022/02/20 05:52:01;;;;;;;2.30;0.90;;;;;;;6.84;73.05;100521.91;5050419;28;20392;-79
2022/02/20 05:54:26;;;;;;;1.67;0.70;;;;;;;6.88;73.41;100525.81;5077265;28;20410;-78
2022/02/20 05:56:51;;;;;;;1.30;0.60;;;;;;;6.89;73.02;100521.22;5052613;28;20478;-78
2022/02/20 05:59:17;;;;;;;3.27;0.77;;;;;;;6.91;72.93;100517.28;5056095;28;20412;-78
2022/02/20 06:01:42;;;;;;;3.73;0.80;;;;;;;7.02;72.73;100526.50;5068989;28;20445;-78
2022/02/20 06:04:08;;;;;;;2.07;0.90;;;;;;;7.05;73.07;100521.50;5060597;28;20433;-79
2022/02/20 06:06:33;;;;;;;1.70;0.83;;;;;;;7.07;72.13;100537.47;5046208;28;20422;-79
2022/02/20 06:08:59;;;;;;;2.53;1.53;;;;;;;7.06;72.36;100533.13;5063545;28;20474;-79
2022/02/20 06:11:25;;;;;;;1.50;0.73;;;;;;;7.04;72.66;100535.22;5038424;28;20396;-79
2022/02/20 06:13:50;;;;;;;3.60;0.60;;;;;;;6.96;72.91;100540.88;5061870;28;20781;-79
2022/02/20 06:16:16;;;;;;;1.20;0.50;;;;;;;6.91;73.22;100538.00;5067127;28;20392;-79
2022/02/20 06:18:41;;;;;;;0.97;0.40;;;;;;;7.01;72.59;100535.66;5058845;28;20457;-79
2022/02/20 06:21:06;;;;;;;3.10;0.50;;;;;;;7.02;72.05;100535.41;5053383;28;20420;-78
2022/02/20 06:23:32;;;;;;;1.03;0.60;;;;;;;6.85;73.02;100547.78;5058046;28;20480;-78
2022/02/20 06:25:59;;;;;;;0.90;0.50;;;;;;;6.84;72.95;100538.06;5065928;28;20391;-79
2022/02/20 06:28:24;;;;;;;1.00;0.60;;;;;;;6.78;73.04;100538.94;5063052;28;20412;-79
2022/02/20 06:30:50;;;;;;;1.83;1.42;;;;;;;6.75;73.03;100545.56;5065089;28;20387;-79
2022/02/20 06:33:15;;;;;;;2.60;0.57;;;;;;;6.84;72.57;100545.31;5053117;28;20853;-80
2022/02/20 06:35:40;;;;;;;0.80;0.50;;;;;;;6.93;71.47;100546.69;5055485;28;20472;-79
2022/02/20 06:38:06;;;;;;;1.70;0.60;;;;;;;6.82;72.55;100542.03;5063206;28;20417;-79
2022/02/20 06:40:31;;;;;;;0.60;0.60;;;;;;;6.89;72.24;100540.09;5050653;28;20452;-79
2022/02/20 06:42:56;;;;;;;1.30;0.53;;;;;;;6.95;72.33;100547.31;5054535;28;20432;-78
2022/02/20 06:45:22;;;;;;;0.87;0.40;;;;;;;6.91;71.44;100544.22;5055235;28;20468;-80
2022/02/20 06:47:47;;;;;;;0.80;0.40;;;;;;;6.94;71.80;100542.97;5045584;28;20549;-79
2022/02/20 06:50:12;;;;;;;1.80;0.70;;;;;;;6.95;71.80;100544.63;5062315;28;20448;-79
2022/02/20 06:52:38;;;;;;;1.50;0.40;;;;;;;6.96;71.73;100546.25;5065060;28;20885;-81
2022/02/20 06:55:03;;;;;;;1.20;0.50;;;;;;;6.87;72.23;100548.41;5065657;28;20440;-81
2022/02/20 06:57:34;;;;;;;0.83;0.40;;;;;;;6.85;72.35;100536.19;5062990;28;20784;-81
2022/02/20 06:59:59;;;;;;;1.20;0.52;;;;;;;6.90;71.68;100550.66;5047755;28;20395;-81
2022/02/20 07:02:25;;;;;;;1.60;0.93;;;;;;;6.90;71.91;100555.22;5070512;28;20392;-81
2022/02/20 07:04:51;;;;;;;1.17;0.30;;;;;;;6.98;71.58;100553.06;5065669;28;20479;-81
2022/02/20 07:07:16;;;;;;;3.80;0.60;;;;;;;7.00;71.45;100556.38;5057861;28;20602;-81
2022/02/20 07:09:41;;;;;;;0.43;0.43;;;;;;;6.93;71.70;100552.91;5078087;28;20909;-80
2022/02/20 07:12:07;;;;;;;1.40;0.50;;;;;;;6.93;71.77;100549.38;5067880;28;20407;-81
2022/02/20 07:14:32;;;;;;;1.88;0.30;;;;;;;6.98;71.34;100550.38;5068959;28;20478;-81
2022/02/20 07:16:57;;;;;;;0.60;0.30;;;;;;;6.98;71.50;100549.56;5066216;28;20435;-83
2022/02/20 07:19:23;;;;;;;0.77;0.60;;;;;;;6.99;71.37;100553.91;5070155;28;20403;-79
2022/02/20 07:21:48;;;;;;;1.40;0.60;;;;;;;7.11;71.53;100552.97;5072883;28;20751;-80
2022/02/20 07:24:13;;;;;;;0.43;0.40;;;;;;;7.06;72.24;100560.88;5059413;28;20429;-81
2022/02/20 07:26:39;;;;;;;2.20;0.60;;;;;;;7.07;71.85;100561.72;5083653;28;20910;-83
2022/02/20 07:29:04;;;;;;;1.37;0.40;;;;;;;7.16;71.58;100563.91;5065106;28;20396;-85
2022/02/20 07:31:29;;;;;;;0.75;0.40;;;;;;;7.18;71.51;100550.22;5066355;28;20736;-85
2022/02/20 07:33:57;;;;;;;0.93;0.60;;;;;;;7.22;71.75;100546.03;5059328;28;20531;-80
2022/02/20 07:36:22;;;;;;;1.50;0.50;;;;;;;7.19;72.96;100544.63;5068831;28;20420;-80
2022/02/20 07:38:47;;;;;;;1.50;0.80;;;;;;;7.21;73.37;100537.13;5061590;28;20414;-79
2022/02/20 07:41:15;;;;;;;1.53;0.50;;;;;;;7.20;73.14;100538.19;5073783;28;20492;-79
2022/02/20 07:43:41;;;;;;;1.73;0.85;;;;;;;7.26;72.97;100533.78;5049826;28;20384;-79
2022/02/20 07:46:07;;;;;;;1.83;0.45;;;;;;;7.28;72.96;100534.34;5080457;28;20397;-81
2022/02/20 07:48:32;;;;;;;0.70;0.43;;;;;;;7.37;72.67;100521.44;5072837;28;20406;-78
2022/02/20 07:50:57;;;;;;;1.67;0.60;;;;;;;7.35;72.59;100521.66;5067419;28;20510;-78
2022/02/20 07:53:23;;;;;;;0.70;0.40;;;;;;;7.48;71.42;100520.69;5060778;28;20419;-79
2022/02/20 07:55:48;;;;;;;0.57;0.47;;;;;;;7.54;70.65;100519.81;5061667;28;20401;-81
2022/02/20 07:58:15;;;;;;;2.03;0.50;;;;;;;7.54;71.84;100512.53;5056772;28;20424;-81
2022/02/20 08:00:40;;;;;;;1.48;0.73;;;;;;;7.75;69.62;100517.50;5055010;28;20909;-80
2022/02/20 08:03:08;;;;;;;1.77;1.20;;;;;;;7.75;70.52;100530.97;5074295;28;20398;-80
2022/02/20 08:05:33;;;;;;;2.33;1.13;;;;;;;7.79;70.29;100520.56;5069295;28;20902;-79
2022/02/20 08:07:58;;;;;;;1.97;1.30;;;;;;;7.66;70.17;100521.53;5041906;28;20518;-80
2022/02/20 08:10:24;;;;;;;4.10;1.30;;;;;;;7.72;70.24;100522.50;5058252;28;20463;-79
2022/02/20 08:12:49;;;;;;;2.05;1.10;;;;;;;7.75;69.76;100520.19;5049446;28;20395;-78
2022/02/20 08:15:15;;;;;;;1.47;0.67;;;;;;;7.74;70.15;100528.50;5072038;28;20746;-78
2022/02/20 08:17:45;;;;;;;2.87;0.53;;;;;;;7.86;69.30;100521.31;5041190;28;21394;-78
2022/02/20 08:20:12;;;;;;;1.52;1.15;;;;;;;7.91;68.66;100526.84;5045993;28;20396;-79
2022/02/20 08:22:37;;;;;;;1.30;0.73;;;;;;;7.92;68.75;100533.06;5053048;28;20401;-79
2022/02/20 08:25:03;;;;;;;0.87;0.60;;;;;;;8.04;68.40;100537.47;5035072;28;20455;-80
2022/02/20 08:27:33;;;;;;;2.17;0.32;;;;;;;8.18;67.92;100544.38;5060234;28;20407;-80
2022/02/20 08:29:58;;;;;;;2.40;0.60;;;;;;;8.06;67.76;100542.66;5061924;28;20396;-81
2022/02/20 08:32:23;;;;;;;1.40;0.28;;;;;;;8.17;66.59;100550.00;5069748;28;20412;-81
2022/02/20 08:34:49;;;;;;;0.60;0.23;;;;;;;8.18;67.16;100549.78;5050931;28;20441;-80
2022/02/20 08:37:14;;;;;;;0.70;0.30;;;;;;;8.04;67.45;100556.38;5068103;28;20829;-80
2022/02/20 08:39:39;;;;;;;2.70;0.70;;;;;;;7.88;67.64;100556.97;5059217;28;20409;-79
2022/02/20 08:42:05;;;;;;;1.20;0.40;;;;;;;7.87;68.51;100541.84;5070994;28;20400;-79
2022/02/20 08:44:33;;;;;;;0.70;0.40;;;;;;;7.87;67.95;100555.31;5063384;28;20749;-80
2022/02/20 08:46:59;;;;;;;0.57;0.38;;;;;;;7.90;68.23;100546.81;5042902;28;20396;-79
2022/02/20 08:49:24;;;;;;;0.73;0.30;;;;;;;7.92;68.64;100543.88;5065849;28;20429;-79
2022/02/20 08:51:50;;;;;;;1.80;0.30;;;;;;;8.03;68.10;100541.25;5072913;28;20412;-79
2022/02/20 08:54:15;;;;;;;1.00;0.50;;;;;;;8.31;66.95;100546.09;5067101;28;20494;-79
2022/02/20 08:56:40;;;;;;;3.00;0.60;;;;;;;8.29;66.85;100535.56;5058096;28;20421;-79
2022/02/20 08:59:05;;;;;;;2.43;0.90;;;;;;;8.29;66.80;100545.53;5052661;28;20400;-79
2022/02/20 09:01:31;;;;;;;0.40;0.40;;;;;;;8.27;67.37;100537.59;5064687;28;20399;-79
2022/02/20 09:04:02;;;;;;;1.00;0.47;;;;;;;8.31;67.04;100551.50;5061870;28;20785;-81
2022/02/20 09:06:31;;;;;;;1.27;0.30;;;;;;;8.33;66.82;100560.22;5058641;28;20493;-79
2022/02/20 09:08:57;;;;;;;1.80;0.30;;;;;;;8.28;66.73;100557.38;5038936;28;20401;-81
2022/02/20 09:11:23;;;;;;;1.70;0.40;;;;;;;8.27;67.03;100551.09;5045277;28;20420;-81
2022/02/20 09:13:49;;;;;;;0.57;0.40;;;;;;;8.23;66.61;100568.00;5054907;28;20543;-79
2022/02/20 09:16:15;;;;;;;2.55;0.35;;;;;;;8.20;67.27;100547.66;5062097;28;20434;-80
2022/02/20 09:18:40;;;;;;;3.10;0.47;;;;;;;8.34;67.07;100554.59;5054640;28;20396;-80
2022/02/20 09:21:05;;;;;;;0.60;0.60;;;;;;;8.40;66.33;100541.22;5063114;28;20393;-79
2022/02/20 09:23:31;;;;;;;0.30;0.30;;;;;;;8.41;66.74;100537.47;5052412;28;20401;-80
2022/02/20 09:25:56;;;;;;;3.70;1.17;;;;;;;8.36;67.07;100538.16;5035258;28;20903;-79
2022/02/20 09:28:22;;;;;;;0.60;0.60;;;;;;;8.26;66.70;100530.59;5060800;28;20772;-80
2022/02/20 09:30:47;;;;;;;1.15;0.70;;;;;;;8.29;66.70;100529.31;5059328;28;20491;-79
2022/02/20 09:33:13;;;;;;;1.10;0.40;;;;;;;8.26;67.12;100535.16;5057076;28;20396;-78
2022/02/20 09:35:38;;;;;;;1.27;0.50;;;;;;;8.31;66.50;100528.03;5058476;28;20416;-79
2022/02/20 09:38:03;;;;;;;1.20;0.80;;;;;;;8.40;66.62;100539.34;5052729;28;20417;-78
2022/02/20 09:40:31;;;;;;;2.50;1.10;;;;;;;8.56;66.60;100533.28;5053957;28;20789;-78
2022/02/20 09:42:56;;;;;;;1.30;0.73;;;;;;;8.53;66.69;100538.34;5054405;28;21157;-80
2022/02/20 09:45:22;;;;;;;1.02;0.47;;;;;;;8.57;66.17;100523.31;5039132;28;20468;-79
2022/02/20 09:47:47;;;;;;;1.50;0.40;;;;;;;8.65;65.86;100523.81;5044255;28;20400;-80
2022/02/20 09:50:12;;;;;;;1.10;0.40;;;;;;;8.69;66.01;100511.47;5036573;28;20423;-79
2022/02/20 09:52:38;;;;;;;0.90;0.90;;;;;;;8.73;65.75;100517.25;5059097;28;20499;-79
2022/02/20 09:55:04;;;;;;;0.67;0.67;;;;;;;8.71;65.64;100512.09;5034064;28;20397;-79
2022/02/20 09:57:30;;;;;;;0.95;0.40;;;;;;;8.74;66.03;100516.19;5034996;28;20441;-78
2022/02/20 09:59:55;;;;;;;0.77;0.50;;;;;;;8.78;65.53;100501.19;5033601;28;20451;-77
2022/02/20 10:02:21;;;;;;;2.00;0.60;;;;;;;8.75;65.75;100499.78;5057306;28;20426;-78
2022/02/20 10:04:48;;;;;;;1.20;0.63;;;;;;;8.84;65.00;100514.59;5036897;28;20809;-77
2022/02/20 10:07:34;;;;;;;1.30;1.30;;;;;;;8.98;65.17;100517.91;5062486;28;20406;-79
2022/02/20 10:10:20;;;;;;;4.00;0.80;;;;;;;8.96;65.55;100525.41;5052819;28;20478;-78
2022/02/20 10:12:54;;;;;;;1.10;0.60;;;;;;;9.07;65.12;100519.19;5056171;28;20461;-78
2022/02/20 10:15:32;;;;;;;1.35;0.50;;;;;;;9.19;64.70;100503.78;5060270;28;20422;-79
2022/02/20 10:18:13;;;;;;;1.02;0.38;;;;;;;9.30;64.81;100492.16;5071720;28;20433;-78
2022/02/20 10:20:39;;;;;;;0.68;0.60;;;;;;;9.21;64.37;100485.47;5055335;28;20433;-78
2022/02/20 10:23:07;;;;;;;1.70;0.60;;;;;;;8.98;65.36;100488.16;5053107;28;20394;-78
2022/02/20 10:25:32;;;;;;;0.65;0.30;;;;;;;9.05;65.16;100488.06;5051457;28;20397;-80
2022/02/20 10:27:57;;;;;;;1.80;0.87;;;;;;;8.95;65.82;100485.09;5054460;28;20487;-78
2022/02/20 10:30:27;;;;;;;0.90;0.40;;;;;;;8.96;65.71;100481.34;5034509;28;20436;-78
2022/02/20 10:33:07;;;;;;;0.50;0.50;;;;;;;9.02;65.85;100493.94;5036426;28;20417;-79
2022/02/20 10:35:37;;;;;;;0.60;0.60;;;;;;;9.12;65.34;100470.63;5054035;28;20474;-78
2022/02/20 10:38:18;;;;;;;0.50;0.50;;;;;;;9.23;64.80;100482.53;5048515;28;23261;-78
2022/02/20 10:40:47;;;;;;;2.45;0.55;;;;;;;9.21;65.17;100479.25;5052470;28;20804;-80
2022/02/20 10:43:34;;;;;;;0.90;0.40;;;;;;;9.24;64.34;100478.78;5037930;28;20930;-79
2022/02/20 10:46:06;;;;;;;0.98;0.60;;;;;;;9.34;64.19;100468.19;5034540;28;20419;-78
2022/02/20 10:48:42;;;;;;;0.50;0.50;;;;;;;9.42;64.55;100462.41;5033613;28;20486;-79
2022/02/20 10:51:07;;;;;;;1.15;0.40;;;;;;;9.61;64.45;100477.44;5035764;28;20756;-79
2022/02/20 10:53:33;;;;;;;2.17;0.50;;;;;;;9.77;64.64;100470.47;5031869;28;20420;-78
2022/02/20 10:55:59;;;;;;;3.10;0.70;;;;;;;9.76;64.58;100461.53;5033508;28;20506;-78
2022/02/20 10:58:29;;;;;;;1.40;0.40;;;;;;;9.88;64.42;100456.88;5031248;28;20481;-80
2022/02/20 11:01:00;;;;;;;0.50;0.50;;;;;;;9.75;64.53;100464.44;5035449;28;20566;-77
2022/02/20 11:03:39;;;;;;;0.60;0.52;;;;;;;9.70;64.63;100445.41;5024418;28;20410;-80
2022/02/20 11:06:05;;;;;;;1.50;0.80;;;;;;;9.75;65.58;100457.16;5043475;28;20409;-78
2022/02/20 11:08:33;;;;;;;1.20;0.90;;;;;;;10.02;64.45;100443.91;5041563;28;21420;-78
2022/02/20 11:10:58;;;;;;;1.20;0.77;;;;;;;9.96;64.49;100444.03;5040902;28;20416;-78
2022/02/20 11:13:25;;;;;;;0.50;0.50;;;;;;;9.91;63.70;100426.63;5058472;28;20404;-77
2022/02/20 11:15:52;;;;;;;0.52;0.50;;;;;;;9.77;64.47;100436.13;5055475;28;20951;-78
2022/02/20 11:18:21;;;;;;;0.60;0.60;;;;;;;9.90;63.84;100419.59;5053470;28;20417;-78
2022/02/20 11:20:49;;;;;;;6.78;3.30;;;;;;;10.05;62.84;100421.75;5053744;28;20397;-78
2022/02/20 11:23:29;;;;;;;1.03;1.03;;;;;;;10.15;63.32;100432.81;5051405;28;20459;-78
2022/02/20 11:25:57;;;;;;;0.73;0.73;;;;;;;9.95;63.76;100439.69;5051472;28;20483;-77
2022/02/20 11:28:22;;;;;;;1.67;1.58;;;;;;;9.69;64.70;100431.06;5036020;28;20897;-78
2022/02/20 11:30:48;;;;;;;3.25;2.35;;;;;;;9.59;65.70;100413.78;5033945;28;20448;-78